Time;durP1;ratioP1;P1;durP2;ratioP2;P2;SDS_P1;SDS_P2;PMS_P1;PMS_P2;Temp;Humidity;BMP_temperature;BMP_pressure;BME280_temperature;BME280_humidity;BME280_pressure;Samples;Min_cycle;Max_cycle;Signal;HPM_P1;HPM_P2
2023/07/08 00:00:19;;;;;;;;;;;;;;;15.44;57.90;100555.28;5070815;28;1118;-56
2023/07/08 00:02:50;;;;;;;;;;;;;;;15.38;58.09;100548.97;5057672;28;1064;-54
2023/07/08 00:05:16;;;;;;;;;;;;;;;15.47;57.65;100542.97;5074294;28;1195;-56
2023/07/08 00:07:41;;;;;;;;;;;;;;;15.46;57.88;100552.25;5064742;28;1209;-56
2023/07/08 00:10:13;;;;;;;;;;;;;;;15.46;57.63;100549.53;5074263;28;1131;-56
2023/07/08 00:12:38;;;;;;;;;;;;;;;15.44;57.98;100557.22;5064111;28;1154;-52
2023/07/08 00:15:04;;;;;;;;;;;;;;;15.43;57.68;100550.06;5062014;28;1886;-52
2023/07/08 00:17:30;;;;;;;;;;;;;;;15.46;57.78;100550.38;5063820;28;1169;-53
2023/07/08 00:19:55;;;;;;;;;;;;;;;15.36;58.10;100545.69;5074897;28;1072;-52
2023/07/08 00:22:24;;;;;;;;;;;;;;;15.39;58.01;100550.63;5075571;28;1058;-54
2023/07/08 00:24:50;;;;;;;;;;;;;;;15.38;57.93;100548.16;5075877;28;1067;-54
2023/07/08 00:27:15;;;;;;;;;;;;;;;15.35;57.93;100549.50;5063690;28;1146;-54
2023/07/08 00:29:41;;;;;;;;;;;;;;;15.36;58.16;100547.59;5074843;28;1119;-54
2023/07/08 00:32:09;;;;;;;;;;;;;;;15.39;57.84;100556.09;5063464;28;1139;-54
2023/07/08 00:34:35;;;;;;;;;;;;;;;15.38;57.78;100551.72;5059420;28;1946;-56
2023/07/08 00:37:03;;;;;;;;;;;;;;;15.39;57.87;100558.84;5079862;28;1039;-55
2023/07/08 00:39:29;;;;;;;;;;;;;;;15.35;58.00;100560.47;5079830;28;794;-54
2023/07/08 00:41:54;;;;;;;;;;;;;;;15.37;57.98;100558.28;5066909;28;1103;-51
2023/07/08 00:44:20;;;;;;;;;;;;;;;15.38;57.71;100559.13;5041857;28;1186;-54
2023/07/08 00:46:52;;;;;;;;;;;;;;;15.36;57.93;100556.66;5054829;28;1142;-55
2023/07/08 00:49:33;;;;;;;;;;;;;;;15.30;57.84;100563.19;5054459;28;1218;-55
2023/07/08 00:52:18;;;;;;;;;;;;;;;15.32;57.89;100561.03;5075886;28;1134;-55
2023/07/08 00:54:44;;;;;;;;;;;;;;;15.26;57.97;100562.09;5079645;28;1914;-56
2023/07/08 00:57:11;;;;;;;;;;;;;;;15.30;57.87;100563.19;5078692;28;1170;-56
2023/07/08 00:59:38;;;;;;;;;;;;;;;15.38;57.72;100568.16;5067370;28;969;-54
2023/07/08 01:02:04;;;;;;;;;;;;;;;15.30;57.77;100554.97;5072940;28;1103;-57
2023/07/08 01:04:34;;;;;;;;;;;;;;;15.32;57.84;100554.69;5041775;28;1067;-56
2023/07/08 01:07:02;;;;;;;;;;;;;;;15.33;57.73;100562.69;5047310;28;1030;-55
2023/07/08 01:09:32;;;;;;;;;;;;;;;15.32;57.64;100555.53;5061210;28;1115;-53
2023/07/08 01:11:58;;;;;;;;;;;;;;;15.26;57.74;100555.78;5061093;28;833;-54
2023/07/08 01:14:24;;;;;;;;;;;;;;;15.23;57.93;100551.66;5061484;28;1980;-56
2023/07/08 01:16:50;;;;;;;;;;;;;;;16.03;58.54;100537.53;5048101;28;1067;-54
2023/07/08 01:19:16;;;;;;;;;;;;;;;16.84;58.91;100553.25;5061421;28;1137;-54
2023/07/08 01:21:53;;;;;;;;;;;;;;;16.13;60.01;100552.31;5054714;28;1299;-55
2023/07/08 01:24:19;;;;;;;;;;;;;;;15.90;59.59;100554.53;5072244;28;1052;-55
2023/07/08 01:26:45;;;;;;;;;;;;;;;15.81;59.44;100567.13;5067247;28;1047;-53
2023/07/08 01:29:11;;;;;;;;;;;;;;;15.78;58.96;100567.66;5044285;28;1087;-54
2023/07/08 01:31:36;;;;;;;;;;;;;;;15.73;58.77;100580.25;5061433;28;1097;-54
2023/07/08 01:34:02;;;;;;;;;;;;;;;15.68;58.64;100577.53;5077564;28;1019;-56
2023/07/08 01:36:29;;;;;;;;;;;;;;;15.65;58.41;100578.06;5048832;28;1906;-55
2023/07/08 01:38:55;;;;;;;;;;;;;;;15.60;58.33;100589.03;5047690;28;1150;-54
2023/07/08 01:41:20;;;;;;;;;;;;;;;15.57;58.43;100579.44;5070597;28;1094;-56
2023/07/08 01:43:46;;;;;;;;;;;;;;;15.54;58.28;100579.13;5055354;28;1201;-53
2023/07/08 01:46:13;;;;;;;;;;;;;;;15.57;57.97;100573.94;5077442;28;1002;-54
2023/07/08 01:48:39;;;;;;;;;;;;;;;15.55;58.05;100575.31;5065633;28;1150;-54
2023/07/08 01:51:05;;;;;;;;;;;;;;;15.51;58.04;100576.94;5069843;28;1123;-55
2023/07/08 01:53:31;;;;;;;;;;;;;;;15.48;58.16;100570.09;5074030;28;1095;-54
2023/07/08 01:55:58;;;;;;;;;;;;;;;15.44;58.08;100573.66;5069640;28;1902;-54
2023/07/08 01:58:24;;;;;;;;;;;;;;;15.48;57.94;100561.06;5055239;28;1856;-56
2023/07/08 02:00:50;;;;;;;;;;;;;;;15.43;58.02;100567.34;5060800;28;1588;-54
2023/07/08 02:03:16;;;;;;;;;;;;;;;15.43;57.91;100581.06;5030154;28;1063;-54
2023/07/08 02:05:41;;;;;;;;;;;;;;;15.39;58.03;100593.66;5077895;28;1007;-54
2023/07/08 02:08:08;;;;;;;;;;;;;;;15.44;57.93;100584.59;5064897;28;1123;-56
2023/07/08 02:10:33;;;;;;;;;;;;;;;15.45;57.83;100597.22;5077934;28;999;-55
2023/07/08 02:12:59;;;;;;;;;;;;;;;15.44;57.67;100584.59;5057976;28;1066;-53
2023/07/08 02:15:25;;;;;;;;;;;;;;;15.36;57.92;100567.59;5066900;28;2229;-53
2023/07/08 02:17:51;;;;;;;;;;;;;;;15.35;57.95;100576.91;5058527;28;1201;-54
2023/07/08 02:20:16;;;;;;;;;;;;;;;15.35;58.02;100565.94;5066407;28;1024;-54
2023/07/08 02:22:42;;;;;;;;;;;;;;;15.33;57.98;100567.31;5077544;28;1124;-54
2023/07/08 02:25:09;;;;;;;;;;;;;;;15.35;57.88;100565.94;5052093;28;1211;-55
2023/07/08 02:27:35;;;;;;;;;;;;;;;15.37;57.94;100558.28;5071029;28;1170;-52
2023/07/08 02:30:00;;;;;;;;;;;;;;;15.31;57.77;100551.16;5066501;28;1122;-54
2023/07/08 02:32:26;;;;;;;;;;;;;;;15.35;58.02;100544.03;5064644;28;1154;-56
2023/07/08 02:34:52;;;;;;;;;;;;;;;15.31;57.84;100545.66;5077523;28;1979;-55
2023/07/08 02:37:17;;;;;;;;;;;;;;;15.30;57.83;100530.31;5064019;28;1186;-55
2023/07/08 02:39:43;;;;;;;;;;;;;;;15.30;58.00;100541.28;5069012;28;1241;-55
2023/07/08 02:42:09;;;;;;;;;;;;;;;15.35;57.84;100540.47;5057718;28;1087;-54
2023/07/08 02:44:35;;;;;;;;;;;;;;;15.32;57.96;100536.38;5066542;28;1198;-50
2023/07/08 02:47:00;;;;;;;;;;;;;;;15.29;58.14;100544.28;5056958;28;1512;-53
2023/07/08 02:49:26;;;;;;;;;;;;;;;15.28;58.14;100548.94;5066265;28;1148;-55
2023/07/08 02:51:51;;;;;;;;;;;;;;;15.28;58.12;100540.75;5046283;28;1426;-55
2023/07/08 02:54:17;;;;;;;;;;;;;;;15.22;58.37;100534.44;5068510;28;1914;-53
2023/07/08 02:56:43;;;;;;;;;;;;;;;15.29;57.79;100542.38;5070277;28;1044;-54
2023/07/08 02:59:08;;;;;;;;;;;;;;;15.23;58.36;100551.66;5057198;28;1247;-55
2023/07/08 03:01:41;;;;;;;;;;;;;;;15.25;58.18;100546.75;5058716;28;1019;-51
2023/07/08 03:04:08;;;;;;;;;;;;;;;15.28;58.15;100550.84;5076635;28;1073;-52
2023/07/08 03:06:34;;;;;;;;;;;;;;;15.25;58.05;100537.69;5059025;28;1115;-53
2023/07/08 03:09:00;;;;;;;;;;;;;;;15.38;58.73;100540.75;5077426;28;1081;-54
2023/07/08 03:11:25;;;;;;;;;;;;;;;16.80;59.41;100543.94;5074266;28;1098;-54
2023/07/08 03:13:51;;;;;;;;;;;;;;;16.22;60.46;100539.72;5065912;28;1135;-52
2023/07/08 03:16:17;;;;;;;;;;;;;;;15.94;60.06;100535.63;5058708;28;1977;-57
2023/07/08 03:18:48;;;;;;;;;;;;;;;15.74;59.88;100535.31;5058843;28;1252;-58
2023/07/08 03:21:15;;;;;;;;;;;;;;;15.73;59.53;100536.41;5061104;28;1158;-58
2023/07/08 03:23:40;;;;;;;;;;;;;;;15.72;59.17;100534.78;5072372;28;1151;-63
2023/07/08 03:26:07;;;;;;;;;;;;;;;15.70;58.91;100522.44;5058433;28;1142;-63
2023/07/08 03:28:32;;;;;;;;;;;;;;;15.62;58.91;100515.56;5058478;28;1214;-64
2023/07/08 03:30:58;;;;;;;;;;;;;;;15.63;58.59;100516.41;5054494;28;1309;-64
2023/07/08 03:33:24;;;;;;;;;;;;;;;15.62;58.82;100525.72;5049579;28;1126;-56
2023/07/08 03:35:49;;;;;;;;;;;;;;;15.57;58.69;100562.16;5072125;28;1897;-56
2023/07/08 03:38:15;;;;;;;;;;;;;;;15.56;58.73;100538.59;5067358;28;1130;-58
2023/07/08 03:40:41;;;;;;;;;;;;;;;15.59;58.84;100526.28;5063472;28;1147;-56
2023/07/08 03:43:07;;;;;;;;;;;;;;;15.56;58.68;100533.13;5058730;28;1198;-57
2023/07/08 03:45:36;;;;;;;;;;;;;;;15.56;58.80;100524.91;5058184;28;1103;-57
2023/07/08 03:48:02;;;;;;;;;;;;;;;15.50;58.96;100528.69;5034228;28;1104;-58
2023/07/08 03:50:30;;;;;;;;;;;;;;;15.53;58.81;100525.44;5022598;28;1183;-59
2023/07/08 03:52:57;;;;;;;;;;;;;;;15.53;59.01;100533.66;5035117;28;1091;-58
2023/07/08 03:55:26;;;;;;;;;;;;;;;15.46;58.93;100538.56;5034078;28;1902;-56
2023/07/08 03:57:52;;;;;;;;;;;;;;;15.40;58.94;100532.25;5036362;28;1027;-57
2023/07/08 04:00:18;;;;;;;;;;;;;;;15.43;58.79;100537.22;5034760;28;1143;-58
2023/07/08 04:02:44;;;;;;;;;;;;;;;15.48;58.77;100530.91;5032439;28;1505;-56
2023/07/08 04:05:16;;;;;;;;;;;;;;;15.44;58.58;100518.84;5034771;28;1272;-55
2023/07/08 04:07:42;;;;;;;;;;;;;;;15.40;58.62;100552.28;5021790;28;1694;-54
2023/07/08 04:10:08;;;;;;;;;;;;;;;15.37;58.81;100560.19;5034385;28;1151;-54
2023/07/08 04:12:33;;;;;;;;;;;;;;;15.37;58.57;100552.78;5026877;28;1046;-54
2023/07/08 04:14:59;;;;;;;;;;;;;;;15.39;58.85;100567.06;5036377;28;1973;-55
2023/07/08 04:17:24;;;;;;;;;;;;;;;15.33;58.71;100557.19;5035827;28;1011;-51
2023/07/08 04:19:50;;;;;;;;;;;;;;;15.34;58.75;100578.00;5036549;28;1008;-54
2023/07/08 04:22:16;;;;;;;;;;;;;;;15.34;58.82;100586.22;5036108;28;1123;-52
2023/07/08 04:24:41;;;;;;;;;;;;;;;15.34;58.90;100583.47;5035877;28;1032;-55
2023/07/08 04:27:12;;;;;;;;;;;;;;;15.30;58.85;100590.59;5036170;28;1143;-54
2023/07/08 04:29:38;;;;;;;;;;;;;;;15.37;59.00;100591.16;5022604;28;1206;-53
2023/07/08 04:32:03;;;;;;;;;;;;;;;15.34;58.91;100558.00;5035780;28;1062;-54
2023/07/08 04:34:29;;;;;;;;;;;;;;;15.33;58.87;100568.16;5036216;28;1956;-57
2023/07/08 04:36:54;;;;;;;;;;;;;;;15.34;58.57;100561.56;5033410;28;1458;-56
2023/07/08 04:39:20;;;;;;;;;;;;;;;15.30;58.48;100556.91;5032107;28;993;-57
2023/07/08 04:41:45;;;;;;;;;;;;;;;15.37;58.63;100558.28;5036167;28;1095;-55
2023/07/08 04:44:11;;;;;;;;;;;;;;;15.23;58.85;100554.41;5035980;28;1162;-53
2023/07/08 04:46:38;;;;;;;;;;;;;;;15.31;58.58;100566.78;5035707;28;1114;-58
2023/07/08 04:49:05;;;;;;;;;;;;;;;15.27;58.54;100560.19;5060576;28;1153;-51
2023/07/08 04:51:31;;;;;;;;;;;;;;;15.25;58.48;100549.50;5076191;28;1127;-59
2023/07/08 04:53:56;;;;;;;;;;;;;;;16.54;58.31;100552.25;5075807;28;1194;-54
2023/07/08 04:56:23;;;;;;;;;;;;;;;15.81;57.41;100562.50;5075675;28;1906;-55
2023/07/08 04:58:49;;;;;;;;;;;;;;;15.62;55.51;100536.69;5075749;28;1101;-56
2023/07/08 05:01:14;;;;;;;;;;;;;;;15.60;54.21;100538.84;5065981;28;855;-57
2023/07/08 05:03:39;;;;;;;;;;;;;;;15.42;53.41;100548.41;5075654;28;1151;-57
2023/07/08 05:06:05;;;;;;;;;;;;;;;15.38;52.81;100539.94;5076434;28;1174;-54
2023/07/08 05:08:30;;;;;;;;;;;;;;;15.37;51.99;100536.34;5075683;28;1151;-54
2023/07/08 05:10:56;;;;;;;;;;;;;;;15.51;51.59;100530.34;5075997;28;1130;-55
2023/07/08 05:13:22;;;;;;;;;;;;;;;15.47;51.42;100530.06;5065345;28;1202;-57
2023/07/08 05:15:48;;;;;;;;;;;;;;;15.43;51.10;100528.16;5075718;28;2029;-55
2023/07/08 05:18:13;;;;;;;;;;;;;;;15.47;51.16;100524.59;5075907;28;1107;-54
2023/07/08 05:20:39;;;;;;;;;;;;;;;15.47;51.09;100540.22;5076335;28;1059;-55
2023/07/08 05:23:05;;;;;;;;;;;;;;;15.56;50.34;100530.38;5079544;28;1083;-54
2023/07/08 05:25:31;;;;;;;;;;;;;;;15.48;50.63;100530.91;5074784;28;897;-54
2023/07/08 05:27:57;;;;;;;;;;;;;;;15.52;50.10;100518.31;5066057;28;992;-54
2023/07/08 05:30:22;;;;;;;;;;;;;;;15.45;50.30;100526.78;5078936;28;1170;-55
2023/07/08 05:32:47;;;;;;;;;;;;;;;15.48;50.12;100530.91;5079111;28;976;-54
2023/07/08 05:35:13;;;;;;;;;;;;;;;15.66;49.79;100543.25;5079064;28;1917;-54
2023/07/08 05:37:39;;;;;;;;;;;;;;;15.55;49.93;100536.94;5078690;28;818;-54
2023/07/08 05:40:06;;;;;;;;;;;;;;;15.49;49.77;100552.56;5078577;28;1198;-56
2023/07/08 05:42:32;;;;;;;;;;;;;;;15.53;49.89;100550.91;5061329;28;1306;-56
2023/07/08 05:44:57;;;;;;;;;;;;;;;15.57;49.69;100529.25;5065314;28;1178;-56
2023/07/08 05:47:23;;;;;;;;;;;;;;;15.63;49.58;100541.88;5060738;28;1143;-51
2023/07/08 05:49:49;;;;;;;;;;;;;;;15.54;49.59;100559.94;5075754;28;1146;-54
2023/07/08 05:52:14;;;;;;;;;;;;;;;15.59;49.18;100549.00;5078723;28;1122;-54
2023/07/08 05:54:40;;;;;;;;;;;;;;;15.58;49.25;100539.13;5078702;28;1984;-56
2023/07/08 05:57:06;;;;;;;;;;;;;;;15.58;49.24;100541.88;5078412;28;1079;-54
2023/07/08 05:59:32;;;;;;;;;;;;;;;15.65;48.82;100552.56;5078133;28;1055;-60
2023/07/08 06:01:57;;;;;;;;;;;;;;;15.69;49.10;100538.03;5073845;28;1117;-58
2023/07/08 06:04:23;;;;;;;;;;;;;;;15.65;49.17;100544.34;5077954;28;1074;-57
2023/07/08 06:06:48;;;;;;;;;;;;;;;15.64;49.45;100545.44;5078157;28;1209;-58
2023/07/08 06:09:13;;;;;;;;;;;;;;;15.66;49.21;100549.56;5078028;28;1099;-56
2023/07/08 06:11:39;;;;;;;;;;;;;;;15.78;48.92;100562.19;5076491;28;1061;-58
2023/07/08 06:14:05;;;;;;;;;;;;;;;16.53;50.34;100550.63;5076786;28;1023;-53
2023/07/08 06:16:30;;;;;;;;;;;;;;;16.05;51.02;100540.81;5078320;28;1979;-55
2023/07/08 06:18:56;;;;;;;;;;;;;;;16.04;50.40;100547.38;5078077;28;1130;-55
2023/07/08 06:21:22;;;;;;;;;;;;;;;15.93;49.86;100539.47;5077812;28;1226;-52
2023/07/08 06:23:47;;;;;;;;;;;;;;;15.94;49.71;100539.19;5078296;28;1122;-58
2023/07/08 06:26:13;;;;;;;;;;;;;;;15.98;49.37;100542.22;5070536;28;1926;-54
2023/07/08 06:28:38;;;;;;;;;;;;;;;15.89;49.36;100523.56;5071634;28;1380;-54
2023/07/08 06:31:04;;;;;;;;;;;;;;;15.91;48.94;100528.78;5076435;28;1112;-54
2023/07/08 06:33:29;;;;;;;;;;;;;;;16.00;49.05;100532.59;5050759;28;1146;-54
2023/07/08 06:35:55;;;;;;;;;;;;;;;15.94;48.93;100519.97;5071082;28;1917;-55
2023/07/08 06:38:20;;;;;;;;;;;;;;;15.90;48.75;100516.16;5077253;28;1058;-55
2023/07/08 06:40:46;;;;;;;;;;;;;;;15.96;48.79;100520.50;5078037;28;1343;-55
2023/07/08 06:43:11;;;;;;;;;;;;;;;15.92;49.02;100519.41;5077554;28;1146;-55
2023/07/08 06:46:00;;;;;;;;;;;;;;;15.98;48.84;100510.09;5076455;28;1488;-55
2023/07/08 06:48:25;;;;;;;;;;;;;;;15.96;48.67;100519.72;5076944;28;1201;-54
2023/07/08 06:50:51;;;;;;;;;;;;;;;15.96;48.59;100515.03;5077687;28;1039;-56
2023/07/08 06:53:16;;;;;;;;;;;;;;;15.95;48.57;100529.88;5077285;28;1147;-54
2023/07/08 06:55:43;;;;;;;;;;;;;;;15.97;48.70;100535.88;5074391;28;1914;-56
2023/07/08 06:58:09;;;;;;;;;;;;;;;15.98;48.44;100528.50;5072899;28;1420;-54
2023/07/08 07:00:35;;;;;;;;;;;;;;;16.04;48.11;100532.88;5070229;28;1225;-55
2023/07/08 07:03:00;;;;;;;;;;;;;;;15.90;48.53;100543.56;5064155;28;1543;-57
2023/07/08 07:05:26;;;;;;;;;;;;;;;15.89;48.39;100550.13;5060848;28;1472;-55
2023/07/08 07:07:52;;;;;;;;;;;;;;;15.92;48.62;100552.31;5063826;28;1300;-56
2023/07/08 07:10:19;;;;;;;;;;;;;;;15.91;48.52;100559.75;5073366;28;1079;-56
2023/07/08 07:12:45;;;;;;;;;;;;;;;16.05;48.16;100551.78;5065001;28;1304;-55
2023/07/08 07:15:11;;;;;;;;;;;;;;;15.86;48.36;100556.19;5076788;28;1982;-56
2023/07/08 07:17:37;;;;;;;;;;;;;;;15.96;48.35;100550.69;5076513;28;1214;-57
2023/07/08 07:20:03;;;;;;;;;;;;;;;15.99;48.44;100555.66;5073203;28;1892;-57
2023/07/08 07:22:29;;;;;;;;;;;;;;;16.01;48.41;100564.41;5073531;28;1277;-56
2023/07/08 07:24:54;;;;;;;;;;;;;;;16.01;48.41;100567.16;5075791;28;1093;-57
2023/07/08 07:27:20;;;;;;;;;;;;;;;15.96;48.17;100560.84;5074815;28;1238;-58
2023/07/08 07:29:48;;;;;;;;;;;;;;;16.04;48.18;100572.06;5071116;28;991;-61
2023/07/08 07:32:14;;;;;;;;;;;;;;;16.02;48.23;100576.19;5073271;28;929;-59
2023/07/08 07:34:39;;;;;;;;;;;;;;;16.04;48.17;100565.78;5075580;28;1901;-59
2023/07/08 07:37:05;;;;;;;;;;;;;;;16.01;48.32;100582.78;5072723;28;1114;-58
2023/07/08 07:39:31;;;;;;;;;;;;;;;16.00;48.26;100575.66;5076970;28;1210;-58
2023/07/08 07:41:56;;;;;;;;;;;;;;;16.00;48.25;100576.47;5076052;28;1129;-58
2023/07/08 07:44:22;;;;;;;;;;;;;;;16.02;48.37;100596.22;5063281;28;1218;-56
2023/07/08 07:46:47;;;;;;;;;;;;;;;16.06;48.24;100586.34;5075101;28;1019;-58
2023/07/08 07:49:13;;;;;;;;;;;;;;;16.11;47.84;100603.91;5065256;28;1481;-57
2023/07/08 07:51:38;;;;;;;;;;;;;;;16.05;47.80;100589.38;5071932;28;1239;-55
2023/07/08 07:54:04;;;;;;;;;;;;;;;16.02;48.09;100589.91;5065992;28;1358;-57
2023/07/08 07:56:31;;;;;;;;;;;;;;;15.97;48.00;100593.47;5070642;28;1906;-57
2023/07/08 07:58:57;;;;;;;;;;;;;;;15.99;48.11;100579.47;5075558;28;1138;-56
2023/07/08 08:01:23;;;;;;;;;;;;;;;15.94;48.39;100588.53;5070089;28;1167;-55
2023/07/08 08:03:52;;;;;;;;;;;;;;;15.91;48.19;100578.94;5069604;28;1348;-55
2023/07/08 08:06:19;;;;;;;;;;;;;;;16.08;48.16;100581.41;5061424;28;1415;-56
2023/07/08 08:08:49;;;;;;;;;;;;;;;15.98;48.29;100586.91;5065424;28;1095;-55
2023/07/08 08:11:30;;;;;;;;;;;;;;;16.04;48.05;100563.03;5068075;28;992;-55
2023/07/08 08:14:16;;;;;;;;;;;;;;;16.02;48.03;100574.28;5070719;28;1135;-56
2023/07/08 08:16:43;;;;;;;;;;;;;;;15.99;48.28;100569.34;5072510;28;1914;-56
2023/07/08 08:19:08;;;;;;;;;;;;;;;15.97;48.35;100577.03;5075273;28;1011;-56
2023/07/08 08:21:34;;;;;;;;;;;;;;;16.07;48.04;100571.56;5065169;28;1324;-57
2023/07/08 08:24:00;;;;;;;;;;;;;;;16.06;47.93;100569.91;5069092;28;1289;-58
2023/07/08 08:26:25;;;;;;;;;;;;;;;16.17;47.72;100569.88;5059726;28;1681;-58
2023/07/08 08:28:51;;;;;;;;;;;;;;;16.10;48.20;100577.56;5067110;28;1708;-58
2023/07/08 08:31:16;;;;;;;;;;;;;;;16.07;47.83;100578.94;5066648;28;1412;-59
2023/07/08 08:33:42;;;;;;;;;;;;;;;16.08;47.92;100578.66;5063215;28;1424;-57
2023/07/08 08:36:07;;;;;;;;;;;;;;;16.12;47.76;100595.41;5064716;28;1909;-58
2023/07/08 08:38:33;;;;;;;;;;;;;;;16.00;48.12;100606.63;5062520;28;1345;-59
2023/07/08 08:41:02;;;;;;;;;;;;;;;16.05;48.10;100606.63;5064443;28;1016;-56
2023/07/08 08:43:35;;;;;;;;;;;;;;;16.11;48.03;100604.72;5067721;28;1473;-58
2023/07/08 08:46:19;;;;;;;;;;;;;;;16.08;48.07;100608.84;5054232;28;1376;-56
2023/07/08 08:48:52;;;;;;;;;;;;;;;16.12;48.06;100616.50;5058845;28;1320;-55
2023/07/08 08:51:17;;;;;;;;;;;;;;;16.05;47.91;100611.31;5053601;28;1321;-57
2023/07/08 08:53:43;;;;;;;;;;;;;;;16.07;48.24;100620.91;5065285;28;1186;-58
2023/07/08 08:56:10;;;;;;;;;;;;;;;16.16;47.83;100634.06;5057240;28;1906;-57
2023/07/08 08:58:43;;;;;;;;;;;;;;;16.03;48.22;100622.56;5041818;28;1206;-53
2023/07/08 09:01:10;;;;;;;;;;;;;;;16.06;48.09;100629.41;5059246;28;1289;-56
2023/07/08 09:03:45;;;;;;;;;;;;;;;16.07;48.02;100636.53;5042941;28;1316;-62
2023/07/08 09:06:15;;;;;;;;;;;;;;;16.04;48.24;100629.69;5080011;28;1340;-62
2023/07/08 09:08:41;;;;;;;;;;;;;;;16.15;47.94;100641.47;5045226;28;1449;-62
2023/07/08 09:11:25;;;;;;;;;;;;;;;16.16;47.84;100634.91;5059646;28;1380;-55
2023/07/08 09:13:51;;;;;;;;;;;;;;;16.16;47.87;100645.03;5066494;28;1372;-59
2023/07/08 09:16:25;;;;;;;;;;;;;;;16.15;47.69;100654.38;5051957;28;1914;-57
2023/07/08 09:18:56;;;;;;;;;;;;;;;16.13;47.74;100654.66;5045289;28;1253;-56
2023/07/08 09:21:30;;;;;;;;;;;;;;;16.11;47.88;100650.53;5061503;28;1118;-58
2023/07/08 09:24:00;;;;;;;;;;;;;;;16.07;48.14;100648.34;5061167;28;1067;-58
2023/07/08 09:26:25;;;;;;;;;;;;;;;16.12;47.89;100643.94;5067796;28;1129;-58
2023/07/08 09:28:51;;;;;;;;;;;;;;;16.16;47.70;100650.53;5059137;28;1083;-54
2023/07/08 09:31:23;;;;;;;;;;;;;;;16.16;47.87;100656.00;5060785;28;1303;-53
2023/07/08 09:33:50;;;;;;;;;;;;;;;16.17;47.68;100646.69;5070089;28;1309;-55
2023/07/08 09:36:17;;;;;;;;;;;;;;;16.11;48.19;100665.06;5063894;28;1992;-56
2023/07/08 09:38:42;;;;;;;;;;;;;;;16.12;47.92;100660.41;5065392;28;1031;-55
2023/07/08 09:41:08;;;;;;;;;;;;;;;16.17;47.92;100663.16;5054208;28;1571;-55
2023/07/08 09:43:36;;;;;;;;;;;;;;;16.15;48.15;100654.38;5065544;28;1608;-55
2023/07/08 09:46:01;;;;;;;;;;;;;;;16.13;48.19;100657.41;5072318;28;1693;-56
2023/07/08 09:48:28;;;;;;;;;;;;;;;16.18;47.94;100653.84;5077359;28;1048;-56
2023/07/08 09:50:53;;;;;;;;;;;;;;;16.19;47.82;100660.97;5070415;28;1263;-57
2023/07/08 09:53:19;;;;;;;;;;;;;;;16.15;47.81;100660.69;5071102;28;1122;-58
2023/07/08 09:55:45;;;;;;;;;;;;;;;16.08;48.24;100651.91;5078574;28;1984;-57
2023/07/08 09:58:15;;;;;;;;;;;;;;;16.13;48.00;100631.88;5078568;28;1418;-56
2023/07/08 10:00:41;;;;;;;;;;;;;;;16.15;48.18;100648.91;5060235;28;983;-54
2023/07/08 10:03:17;;;;;;;;;;;;;;;16.25;47.97;100641.47;5065615;28;1117;-55
2023/07/08 10:05:42;;;;;;;;;;;;;;;16.17;48.06;100646.69;5066286;28;1067;-55
2023/07/08 10:08:15;;;;;;;;;;;;;;;16.24;47.90;100652.72;5077571;28;1113;-56
2023/07/08 10:10:41;;;;;;;;;;;;;;;16.18;48.07;100664.81;5078439;28;1003;-56
2023/07/08 10:13:26;;;;;;;;;;;;;;;16.25;47.83;100665.34;5078294;28;1086;-58
2023/07/08 10:15:54;;;;;;;;;;;;;;;16.25;48.04;100654.38;5050805;28;1987;-56
2023/07/08 10:18:25;;;;;;;;;;;;;;;16.19;48.09;100652.75;5045566;28;1170;-55
2023/07/08 10:21:06;;;;;;;;;;;;;;;16.20;48.01;100640.66;5051650;28;1372;-58
2023/07/08 10:23:44;;;;;;;;;;;;;;;16.18;48.08;100659.31;5060366;28;1348;-56
2023/07/08 10:26:12;;;;;;;;;;;;;;;16.18;47.96;100654.63;5073147;28;1178;-56
2023/07/08 10:28:41;;;;;;;;;;;;;;;16.22;48.05;100663.16;5047956;28;1257;-57
2023/07/08 10:31:25;;;;;;;;;;;;;;;16.18;47.91;100662.06;5051368;28;1425;-56
2023/07/08 10:34:11;;;;;;;;;;;;;;;16.29;47.89;100654.66;5077913;28;1202;-64
2023/07/08 10:36:45;;;;;;;;;;;;;;;16.19;48.06;100656.28;5076958;28;1989;-59
2023/07/08 10:39:29;;;;;;;;;;;;;;;16.17;47.93;100638.47;5050963;28;1111;-59
2023/07/08 10:42:12;;;;;;;;;;;;;;;16.17;48.00;100650.28;5076580;28;1035;-54
2023/07/08 10:44:41;;;;;;;;;;;;;;;16.08;47.96;100649.97;5077844;28;1091;-55
2023/07/08 10:47:22;;;;;;;;;;;;;;;16.21;47.72;100664.25;5077272;28;991;-54
2023/07/08 10:49:57;;;;;;;;;;;;;;;16.17;47.81;100657.66;5059652;28;1040;-54
2023/07/08 10:52:41;;;;;;;;;;;;;;;16.17;47.82;100664.00;5077940;28;1048;-56
2023/07/08 10:55:11;;;;;;;;;;;;;;;16.30;47.42;100670.84;5077188;28;1979;-50
2023/07/08 10:57:46;;;;;;;;;;;;;;;16.22;47.65;100661.22;5059485;28;1135;-56
2023/07/08 11:00:16;;;;;;;;;;;;;;;16.10;47.77;100651.63;5077014;28;1113;-54
2023/07/08 11:02:54;;;;;;;;;;;;;;;16.17;47.92;100658.50;5053794;28;1162;-52
2023/07/08 11:05:44;;;;;;;;;;;;;;;16.24;47.77;100661.78;5045874;28;1219;-55
2023/07/08 11:08:29;;;;;;;;;;;;;;;16.20;47.65;100651.63;5064148;28;1227;-55
2023/07/08 11:10:59;;;;;;;;;;;;;;;16.18;47.86;100673.03;5059233;28;1011;-56
2023/07/08 11:13:25;;;;;;;;;;;;;;;16.17;47.89;100668.63;5059315;28;1099;-58
2023/07/08 11:15:52;;;;;;;;;;;;;;;16.19;47.59;100655.50;5057053;28;1910;-57
2023/07/08 11:18:38;;;;;;;;;;;;;;;16.24;47.52;100661.78;5044931;28;1055;-57
2023/07/08 11:21:08;;;;;;;;;;;;;;;16.17;47.65;100663.16;5059381;28;1369;-59
2023/07/08 11:23:43;;;;;;;;;;;;;;;16.26;47.66;100661.53;5059316;28;1091;-55
2023/07/08 11:26:15;;;;;;;;;;;;;;;16.19;47.68;100650.00;5058960;28;1068;-58
2023/07/08 11:28:40;;;;;;;;;;;;;;;16.24;47.55;100652.72;5069062;28;992;-59
2023/07/08 11:31:06;;;;;;;;;;;;;;;16.14;47.62;100680.16;5076383;28;1039;-59
2023/07/08 11:33:31;;;;;;;;;;;;;;;16.15;47.87;100665.34;5076754;28;1079;-57
2023/07/08 11:35:58;;;;;;;;;;;;;;;16.25;47.75;100662.59;5058599;28;1983;-54
2023/07/08 11:38:24;;;;;;;;;;;;;;;16.15;47.83;100657.13;5075544;28;1075;-58
2023/07/08 11:41:10;;;;;;;;;;;;;;;16.15;47.97;100654.38;5074694;28;1055;-54
2023/07/08 11:43:56;;;;;;;;;;;;;;;16.21;47.75;100659.56;5046217;28;1662;-56
2023/07/08 11:46:28;;;;;;;;;;;;;;;16.20;47.77;100648.88;5076728;28;948;-57
2023/07/08 11:48:54;;;;;;;;;;;;;;;16.33;47.68;100647.53;5058584;28;1247;-58
2023/07/08 11:51:20;;;;;;;;;;;;;;;16.22;47.98;100649.44;5068334;28;1122;-57
2023/07/08 11:53:46;;;;;;;;;;;;;;;16.22;47.90;100632.97;5056812;28;1215;-57
2023/07/08 11:56:15;;;;;;;;;;;;;;;16.26;47.62;100634.09;5074211;28;1981;-58
2023/07/08 11:58:50;;;;;;;;;;;;;;;16.29;47.51;100650.00;5067244;28;1347;-57
2023/07/08 12:01:15;;;;;;;;;;;;;;;16.18;47.79;100634.63;5072590;28;1101;-57
2023/07/08 12:03:50;;;;;;;;;;;;;;;16.20;47.83;100652.47;5069941;28;1140;-56
2023/07/08 12:06:28;;;;;;;;;;;;;;;16.17;48.02;100635.72;5076126;28;1431;-57
2023/07/08 12:08:55;;;;;;;;;;;;;;;16.31;47.56;100652.47;5068607;28;1336;-52
2023/07/08 12:11:28;;;;;;;;;;;;;;;16.30;47.63;100650.81;5064703;28;932;-54
2023/07/08 12:13:54;;;;;;;;;;;;;;;16.23;47.75;100635.44;5058409;28;1414;-52
2023/07/08 12:16:19;;;;;;;;;;;;;;;16.22;47.70;100643.97;5054531;28;1906;-51
2023/07/08 12:18:48;;;;;;;;;;;;;;;16.20;47.71;100632.41;5056407;28;1214;-53
2023/07/08 12:21:13;;;;;;;;;;;;;;;16.28;47.75;100637.34;5048543;28;1395;-54
2023/07/08 12:23:43;;;;;;;;;;;;;;;16.24;47.76;100652.72;5051897;28;1075;-53
2023/07/08 12:26:09;;;;;;;;;;;;;;;16.24;47.96;100647.22;5076878;28;1046;-52
2023/07/08 12:28:36;;;;;;;;;;;;;;;16.29;47.72;100644.50;5064986;28;1073;-54
2023/07/08 12:31:01;;;;;;;;;;;;;;;16.20;48.09;100651.63;5079154;28;1004;-51
2023/07/08 12:33:30;;;;;;;;;;;;;;;16.21;47.84;100637.63;5079767;28;1066;-50
2023/07/08 12:35:56;;;;;;;;;;;;;;;16.16;48.02;100651.38;5079904;28;1910;-55
2023/07/08 12:38:23;;;;;;;;;;;;;;;16.22;47.91;100649.44;5079919;28;1071;-52
2023/07/08 12:40:49;;;;;;;;;;;;;;;16.23;47.93;100640.94;5057422;28;833;-52
2023/07/08 12:43:15;;;;;;;;;;;;;;;16.25;47.75;100640.66;5079440;28;1066;-53
2023/07/08 12:45:40;;;;;;;;;;;;;;;16.19;47.98;100644.50;5061744;28;1055;-52
2023/07/08 12:48:08;;;;;;;;;;;;;;;16.24;47.51;100619.81;5079901;28;1148;-51
2023/07/08 12:50:33;;;;;;;;;;;;;;;16.33;47.76;100640.13;5061874;28;1039;-52